createdAt,value
2017-09-11T00:00:36.136Z,0
2017-09-11T00:01:58.624Z,0
2017-09-11T00:03:20.428Z,0
2017-09-11T00:04:42.305Z,0
2017-09-11T00:06:04.457Z,0
2017-09-11T00:07:26.893Z,0
2017-09-11T00:08:49.030Z,0
2017-09-11T00:10:11.180Z,0
2017-09-11T00:11:32.994Z,0
2017-09-11T00:12:55.144Z,0
2017-09-11T00:14:17.281Z,0
2017-09-11T00:15:39.102Z,0
2017-09-11T00:17:00.924Z,0
2017-09-11T00:18:22.748Z,0
2017-09-11T00:19:44.563Z,0
2017-09-11T00:21:07.024Z,0
2017-09-11T00:22:29.468Z,0
2017-09-11T00:23:51.104Z,0
2017-09-11T00:25:12.902Z,0
2017-09-11T00:26:35.073Z,0
2017-09-11T00:27:56.900Z,0
2017-09-11T00:29:19.590Z,0
2017-09-11T00:30:41.534Z,0
2017-09-11T00:32:03.665Z,0
2017-09-11T00:33:25.892Z,0
2017-09-11T00:34:47.945Z,0
2017-09-11T00:36:10.097Z,0
2017-09-11T00:37:31.904Z,0
2017-09-11T00:38:53.714Z,0
2017-09-11T00:40:16.193Z,0
2017-09-11T00:41:38.463Z,0
2017-09-11T00:43:00.594Z,0
2017-09-11T00:44:22.783Z,0
2017-09-11T00:45:45.204Z,0
2017-09-11T00:47:07.780Z,0
2017-09-11T00:48:29.587Z,0
2017-09-11T00:49:51.074Z,0
2017-09-11T00:51:12.920Z,0
2017-09-11T00:52:35.359Z,0
2017-09-11T00:53:57.181Z,0
2017-09-11T00:55:18.693Z,0
2017-09-11T00:56:40.752Z,0
2017-09-11T00:58:02.884Z,0
2017-09-11T00:59:25.142Z,0
2017-09-11T01:00:47.589Z,0
2017-09-11T01:02:09.984Z,0
2017-09-11T01:03:31.780Z,0
2017-09-11T01:04:53.595Z,0
2017-09-11T01:06:15.404Z,0
2017-09-11T01:07:37.246Z,0
2017-09-11T01:08:59.374Z,0
2017-09-11T01:10:21.172Z,0
2017-09-11T01:11:42.707Z,0
2017-09-11T01:13:05.203Z,0
2017-09-11T01:14:27.003Z,0
2017-09-11T01:15:48.796Z,0
2017-09-11T01:17:10.584Z,0
2017-09-11T01:18:32.688Z,0
2017-09-11T01:19:55.283Z,0
2017-09-11T01:21:17.137Z,0
2017-09-11T01:22:39.678Z,0
2017-09-11T01:24:02.479Z,0
2017-09-11T01:25:24.616Z,0
2017-09-11T01:26:46.762Z,0
2017-09-11T01:28:08.264Z,0
2017-09-11T01:29:30.748Z,0
2017-09-11T01:30:52.720Z,0
2017-09-11T01:32:14.937Z,0
2017-09-11T01:33:36.743Z,0
2017-09-11T01:34:58.581Z,0
2017-09-11T01:36:20.064Z,0
2017-09-11T01:37:40.937Z,0
2017-09-11T01:39:03.154Z,0
2017-09-11T01:40:25.633Z,0
2017-09-11T01:41:47.781Z,0
2017-09-11T01:43:10.294Z,0
2017-09-11T01:44:32.433Z,0
2017-09-11T01:45:54.331Z,0
2017-09-11T01:47:15.843Z,0
2017-09-11T01:48:37.674Z,0
2017-09-11T01:49:59.836Z,0
2017-09-11T01:51:22.023Z,0
2017-09-11T01:52:43.614Z,0
2017-09-11T01:54:05.754Z,0
2017-09-11T01:55:28.336Z,0
2017-09-11T01:56:50.724Z,0
2017-09-11T01:58:12.560Z,0
2017-09-11T01:59:34.699Z,0
2017-09-11T02:00:56.539Z,0
2017-09-11T02:02:18.282Z,0
2017-09-11T02:03:39.455Z,0
2017-09-11T02:05:01.575Z,0
2017-09-11T02:06:23.377Z,0
2017-09-11T02:07:45.894Z,0
2017-09-11T02:09:08.075Z,0
2017-09-11T02:10:30.215Z,0
2017-09-11T02:11:52.376Z,0
2017-09-11T02:13:14.219Z,0
2017-09-11T02:14:35.727Z,0
2017-09-11T02:15:58.174Z,0
2017-09-11T02:17:20.666Z,0
2017-09-11T02:18:43.481Z,0
2017-09-11T02:20:05.302Z,0
2017-09-11T02:21:26.809Z,0
2017-09-11T02:22:48.944Z,0
2017-09-11T02:24:10.684Z,0
2017-09-11T02:25:32.488Z,0
2017-09-11T02:26:53.666Z,0
2017-09-11T02:28:15.942Z,0
2017-09-11T02:29:38.415Z,0
2017-09-11T02:31:00.691Z,0
2017-09-11T02:32:23.155Z,0
2017-09-11T02:33:44.666Z,0
2017-09-11T02:35:06.411Z,0
2017-09-11T02:36:28.222Z,0
2017-09-11T02:37:50.484Z,0
2017-09-11T02:39:12.325Z,0
2017-09-11T02:40:34.814Z,0
2017-09-11T02:41:56.942Z,0
2017-09-11T02:43:18.434Z,0
2017-09-11T02:44:39.911Z,0
2017-09-11T02:46:02.013Z,0
2017-09-11T02:47:24.478Z,0
2017-09-11T02:48:46.948Z,0
2017-09-11T02:50:09.091Z,0
2017-09-11T02:51:30.671Z,0
2017-09-11T02:52:52.489Z,0
2017-09-11T02:54:14.095Z,0
2017-09-11T02:55:36.246Z,0
2017-09-11T02:56:58.683Z,0
2017-09-11T02:58:20.474Z,0
2017-09-11T02:59:42.604Z,0
2017-09-11T03:01:04.434Z,0
2017-09-11T03:02:25.635Z,0
2017-09-11T03:03:47.438Z,0
2017-09-11T03:05:09.580Z,0
2017-09-11T03:06:31.418Z,0
2017-09-11T03:07:53.976Z,0
2017-09-11T03:09:16.134Z,0
2017-09-11T03:10:37.342Z,0
2017-09-11T03:11:59.174Z,0
2017-09-11T03:13:22.015Z,0
2017-09-11T03:14:44.185Z,0
2017-09-11T03:16:06.334Z,0
2017-09-11T03:17:28.137Z,0
2017-09-11T03:18:50.619Z,0
2017-09-11T03:20:12.452Z,0
2017-09-11T03:21:34.891Z,0
2017-09-11T03:22:57.024Z,0
2017-09-11T03:24:19.137Z,0
2017-09-11T03:25:40.665Z,0
2017-09-11T03:27:03.130Z,0
2017-09-11T03:28:24.614Z,0
2017-09-11T03:29:47.104Z,0
2017-09-11T03:31:08.913Z,0
2017-09-11T03:32:30.420Z,0
2017-09-11T03:33:52.566Z,0
2017-09-11T03:35:14.941Z,0
2017-09-11T03:36:36.765Z,0
2017-09-11T03:37:58.917Z,0
2017-09-11T03:39:21.063Z,0
2017-09-11T03:40:43.535Z,0
2017-09-11T03:42:05.663Z,0
2017-09-11T03:43:27.564Z,0
2017-09-11T03:44:49.474Z,0
2017-09-11T03:46:11.699Z,0
2017-09-11T03:47:34.190Z,0
2017-09-11T03:48:56.364Z,0
2017-09-11T03:50:17.849Z,0
2017-09-11T03:51:39.332Z,0
2017-09-11T03:53:00.491Z,0
2017-09-11T03:54:22.614Z,0
2017-09-11T03:55:44.742Z,0
2017-09-11T03:57:07.643Z,0
2017-09-11T03:58:28.801Z,0
2017-09-11T03:59:50.590Z,0
2017-09-11T04:01:12.725Z,0
2017-09-11T04:02:35.109Z,0
2017-09-11T04:03:57.342Z,0
2017-09-11T04:05:19.805Z,0
2017-09-11T04:06:41.946Z,0
2017-09-11T04:08:04.759Z,0
2017-09-11T04:09:26.252Z,0
2017-09-11T04:10:48.172Z,0
2017-09-11T04:12:10.026Z,0
2017-09-11T04:13:32.536Z,0
2017-09-11T04:14:55.012Z,0
2017-09-11T04:16:17.481Z,0
2017-09-11T04:17:38.993Z,0
2017-09-11T04:19:00.822Z,0
2017-09-11T04:20:22.970Z,0
2017-09-11T04:21:45.256Z,0
2017-09-11T04:23:07.071Z,0
2017-09-11T04:24:28.926Z,0
2017-09-11T04:25:51.071Z,0
2017-09-11T04:27:13.228Z,4
2017-09-11T04:28:35.052Z,4
2017-09-11T04:29:57.469Z,4
2017-09-11T04:31:19.316Z,4
2017-09-11T04:32:41.452Z,4
2017-09-11T04:34:03.602Z,4
2017-09-11T04:35:26.078Z,4
2017-09-11T04:36:47.895Z,8
2017-09-11T04:38:10.055Z,12
2017-09-11T04:39:32.502Z,12
2017-09-11T04:40:54.495Z,8
2017-09-11T04:42:16.639Z,16
2017-09-11T04:43:38.460Z,24
2017-09-11T04:45:01.042Z,36
2017-09-11T04:46:23.540Z,52
2017-09-11T04:47:46.143Z,60
2017-09-11T04:49:08.265Z,68
2017-09-11T04:50:29.447Z,76
2017-09-11T04:51:51.302Z,76
2017-09-11T04:53:12.798Z,100
2017-09-11T04:54:35.572Z,176
2017-09-11T04:55:58.164Z,180
2017-09-11T04:57:20.311Z,224
2017-09-11T04:58:41.552Z,276
2017-09-11T05:00:03.782Z,300
2017-09-11T05:01:26.295Z,324
2017-09-11T05:02:48.499Z,360
2017-09-11T05:04:10.639Z,408
2017-09-11T05:05:32.464Z,384
2017-09-11T05:06:54.928Z,476
2017-09-11T05:08:16.791Z,512
2017-09-11T05:09:39.263Z,552
2017-09-11T05:11:01.789Z,504
2017-09-11T05:12:23.645Z,536
2017-09-11T05:13:45.932Z,652
2017-09-11T05:15:08.393Z,540
2017-09-11T05:16:29.893Z,556
2017-09-11T05:17:51.779Z,636
2017-09-11T05:19:13.910Z,604
2017-09-11T05:20:36.052Z,720
2017-09-11T05:21:58.194Z,516
2017-09-11T05:23:20.338Z,544
2017-09-11T05:24:43.135Z,476
2017-09-11T05:26:05.071Z,388
2017-09-11T05:27:27.190Z,604
2017-09-11T05:28:49.014Z,1068
2017-09-11T05:30:11.189Z,1452
2017-09-11T05:31:33.659Z,1484
2017-09-11T05:32:55.882Z,1736
2017-09-11T05:34:18.023Z,1380
2017-09-11T05:35:40.192Z,1076
2017-09-11T05:37:02.337Z,988
2017-09-11T05:38:24.809Z,1084
2017-09-11T05:39:46.957Z,1228
2017-09-11T05:41:09.446Z,1240
2017-09-11T05:42:30.682Z,1448
2017-09-11T05:43:52.827Z,1692
2017-09-11T05:45:14.323Z,1756
2017-09-11T05:46:37.144Z,1928
2017-09-11T05:47:59.629Z,2248
2017-09-11T05:49:21.449Z,2736
2017-09-11T05:50:43.959Z,3044
2017-09-11T05:52:06.442Z,3096
2017-09-11T05:53:29.053Z,3404
2017-09-11T05:54:51.183Z,3512
2017-09-11T05:56:12.689Z,3812
2017-09-11T05:57:35.593Z,3940
2017-09-11T05:58:57.423Z,4240
2017-09-11T06:00:19.251Z,3992
2017-09-11T06:01:41.713Z,4068
2017-09-11T06:03:03.652Z,4048
2017-09-11T06:04:24.817Z,4048
2017-09-11T06:05:46.373Z,4280
2017-09-11T06:07:08.562Z,4100
2017-09-11T06:08:31.286Z,3768
2017-09-11T06:09:53.783Z,3060
2017-09-11T06:11:15.718Z,2720
2017-09-11T06:12:38.003Z,2640
2017-09-11T06:14:00.411Z,2860
2017-09-11T06:15:22.025Z,3084
2017-09-11T06:16:44.503Z,3248
2017-09-11T06:18:06.649Z,3608
2017-09-11T06:19:28.813Z,3768
2017-09-11T06:20:50.310Z,3868
2017-09-11T06:22:12.607Z,4352
2017-09-11T06:23:34.735Z,5208
2017-09-11T06:24:57.238Z,5560
2017-09-11T06:26:18.412Z,7516
2017-09-11T06:27:40.866Z,6196
2017-09-11T06:29:03.003Z,6304
2017-09-11T06:30:25.660Z,6652
2017-09-11T06:31:47.480Z,16032
2017-09-11T06:33:09.607Z,20768
2017-09-11T06:34:31.782Z,9568
2017-09-11T06:35:53.641Z,7920
2017-09-11T06:37:14.893Z,8284
2017-09-11T06:38:36.725Z,9012
2017-09-11T06:39:58.553Z,7684
2017-09-11T06:41:21.103Z,8912
2017-09-11T06:42:43.496Z,7800
2017-09-11T06:44:05.638Z,8480
2017-09-11T06:45:28.088Z,10960
2017-09-11T06:46:50.914Z,10732
2017-09-11T06:48:12.744Z,13088
2017-09-11T06:49:34.883Z,12100
2017-09-11T06:50:57.201Z,12824
2017-09-11T06:52:19.339Z,6568
2017-09-11T06:53:40.961Z,10956
2017-09-11T06:55:02.778Z,8716
2017-09-11T06:56:23.966Z,6712
2017-09-11T06:57:46.480Z,5820
2017-09-11T06:59:08.963Z,4700
2017-09-11T07:00:30.788Z,12412
2017-09-11T07:01:52.060Z,13240
2017-09-11T07:03:14.503Z,14624
2017-09-11T07:04:36.379Z,7904
2017-09-11T07:05:58.193Z,16384
2017-09-11T07:07:20.027Z,18304
2017-09-11T07:08:42.453Z,11140
2017-09-11T07:10:03.963Z,12152
2017-09-11T07:11:26.181Z,13876
2017-09-11T07:12:48.000Z,9660
2017-09-11T07:14:10.446Z,14832
2017-09-11T07:15:31.940Z,9120
2017-09-11T07:16:54.079Z,9892
2017-09-11T07:18:16.543Z,8696
2017-09-11T07:19:39.043Z,8072
2017-09-11T07:21:01.512Z,13608
2017-09-11T07:22:23.973Z,9604
2017-09-11T07:23:46.179Z,15944
2017-09-11T07:25:08.462Z,14044
2017-09-11T07:26:30.351Z,14432
2017-09-11T07:27:52.823Z,14728
2017-09-11T07:29:15.301Z,19424
2017-09-11T07:30:37.513Z,14416
2017-09-11T07:31:59.053Z,13256
2017-09-11T07:33:20.874Z,10784
2017-09-11T07:34:42.395Z,8888
2017-09-11T07:36:04.532Z,11468
2017-09-11T07:37:26.353Z,10052
2017-09-11T07:38:48.622Z,10004
2017-09-11T07:40:10.767Z,8532
2017-09-11T07:41:32.564Z,6292
2017-09-11T07:42:54.469Z,9344
2017-09-11T07:44:16.023Z,7640
2017-09-11T07:45:37.856Z,8972
2017-09-11T07:47:00.483Z,7748
2017-09-11T07:48:21.975Z,5996
2017-09-11T07:49:44.133Z,12800
2017-09-11T07:51:05.987Z,10532
2017-09-11T07:52:28.548Z,13696
2017-09-11T07:53:50.375Z,12096
2017-09-11T07:55:12.874Z,10764
2017-09-11T07:56:34.417Z,11356
2017-09-11T07:57:56.916Z,10192
2017-09-11T07:59:18.799Z,7496
2017-09-11T08:00:41.255Z,6448
2017-09-11T08:02:03.733Z,7968
2017-09-11T08:03:25.591Z,8200
2017-09-11T08:04:47.422Z,8896
2017-09-11T08:06:09.582Z,11260
2017-09-11T08:07:31.418Z,12432
2017-09-11T08:08:54.183Z,10044
2017-09-11T08:10:15.705Z,9816
2017-09-11T08:11:37.846Z,11900
2017-09-11T08:12:59.704Z,10784
2017-09-11T08:14:21.793Z,8444
2017-09-11T08:15:43.933Z,8080
2017-09-11T08:17:05.742Z,8336
2017-09-11T08:18:27.570Z,7436
2017-09-11T08:19:50.058Z,7428
2017-09-11T08:21:12.187Z,11160
2017-09-11T08:22:34.400Z,11964
2017-09-11T08:23:56.225Z,11456
2017-09-11T08:25:18.396Z,13048
2017-09-11T08:26:40.876Z,11892
2017-09-11T08:28:02.994Z,12724
2017-09-11T08:29:25.190Z,15512
2017-09-11T08:30:48.095Z,16896
2017-09-11T08:32:10.663Z,15840
2017-09-11T08:33:32.814Z,12824
2017-09-11T08:34:54.631Z,10528
2017-09-11T08:36:16.392Z,10876
2017-09-11T08:37:37.930Z,8644
2017-09-11T08:38:59.776Z,8504
2017-09-11T08:40:22.017Z,8252
2017-09-11T08:41:44.139Z,10420
2017-09-11T08:43:05.974Z,9672
2017-09-11T08:44:28.433Z,11520
2017-09-11T08:45:50.266Z,13588
2017-09-11T08:47:13.025Z,13248
2017-09-11T08:48:34.873Z,12912
2017-09-11T08:49:57.323Z,12152
2017-09-11T08:51:19.553Z,10252
2017-09-11T08:52:42.052Z,10256
2017-09-11T08:54:04.193Z,12608
2017-09-11T08:55:26.686Z,15220
2017-09-11T08:56:49.163Z,14504
2017-09-11T08:58:11.613Z,13832
2017-09-11T08:59:33.832Z,13812
2017-09-11T09:00:55.370Z,13400
2017-09-11T09:02:17.845Z,14196
2017-09-11T09:03:40.631Z,12844
2017-09-11T09:05:02.452Z,12624
2017-09-11T09:06:24.625Z,12452
2017-09-11T09:07:46.473Z,11888
2017-09-11T09:09:08.550Z,10576
2017-09-11T09:10:30.743Z,10292
2017-09-11T09:11:52.898Z,11480
2017-09-11T09:13:14.405Z,12308
2017-09-11T09:14:36.593Z,12424
2017-09-11T09:15:59.075Z,10976
2017-09-11T09:17:20.949Z,10620
2017-09-11T09:18:42.962Z,11272
2017-09-11T09:20:05.135Z,11220
2017-09-11T09:21:26.974Z,12280
2017-09-11T09:22:49.196Z,12348
2017-09-11T09:24:11.768Z,12720
2017-09-11T09:25:34.540Z,14904
2017-09-11T09:26:56.432Z,14172
2017-09-11T09:28:18.571Z,12068
2017-09-11T09:29:40.409Z,11072
2017-09-11T09:31:02.616Z,13288
2017-09-11T09:32:24.441Z,13648
2017-09-11T09:33:46.580Z,16736
2017-09-11T09:35:08.532Z,15024
2017-09-11T09:36:30.970Z,14636
2017-09-11T09:37:52.490Z,15396
2017-09-11T09:39:15.067Z,14576
2017-09-11T09:40:37.221Z,15048
2017-09-11T09:41:59.627Z,15020
2017-09-11T09:43:22.099Z,13068
2017-09-11T09:44:44.269Z,12620
2017-09-11T09:46:06.742Z,14792
2017-09-11T09:47:28.860Z,15488
2017-09-11T09:48:50.993Z,17376
2017-09-11T09:50:12.850Z,11120
2017-09-11T09:51:34.731Z,10048
2017-09-11T09:52:57.147Z,8536
2017-09-11T09:54:18.951Z,9864
2017-09-11T09:55:41.106Z,9496
2017-09-11T09:57:03.263Z,10328
2017-09-11T09:58:25.665Z,9636
2017-09-11T09:59:47.483Z,11716
2017-09-11T10:01:09.353Z,14408
2017-09-11T10:02:31.485Z,14308
2017-09-11T10:03:53.772Z,15004
2017-09-11T10:05:16.264Z,14664
2017-09-11T10:06:37.819Z,12756
2017-09-11T10:07:59.643Z,15192
2017-09-11T10:09:22.063Z,13948
2017-09-11T10:10:44.549Z,15012
2017-09-11T10:12:06.063Z,15968
2017-09-11T10:13:28.206Z,14316
2017-09-11T10:14:50.679Z,15496
2017-09-11T10:16:12.821Z,14040
2017-09-11T10:17:34.964Z,13388
2017-09-11T10:18:57.518Z,11440
2017-09-11T10:20:19.903Z,11424
2017-09-11T10:21:42.171Z,12432
2017-09-11T10:23:04.005Z,14456
2017-09-11T10:24:26.203Z,15304
2017-09-11T10:25:48.066Z,14520
2017-09-11T10:27:10.543Z,15016
2017-09-11T10:28:33.119Z,16672
2017-09-11T10:29:55.595Z,16096
2017-09-11T10:31:17.809Z,14280
2017-09-11T10:32:39.944Z,12244
2017-09-11T10:34:01.462Z,12584
2017-09-11T10:35:23.322Z,14936
2017-09-11T10:36:45.878Z,12280
2017-09-11T10:38:07.845Z,12200
2017-09-11T10:39:30.319Z,10940
2017-09-11T10:40:52.464Z,10976
2017-09-11T10:42:15.334Z,12524
2017-09-11T10:43:37.621Z,14712
2017-09-11T10:44:59.843Z,14040
2017-09-11T10:46:21.993Z,14708
2017-09-11T10:47:44.496Z,13980
2017-09-11T10:49:06.960Z,11596
2017-09-11T10:50:29.261Z,15000
2017-09-11T10:51:51.446Z,15032
2017-09-11T10:53:14.163Z,13152
2017-09-11T10:54:35.682Z,11832
2017-09-11T10:55:58.143Z,11668
2017-09-11T10:57:20.313Z,12888
2017-09-11T10:58:42.427Z,12912
2017-09-11T11:00:04.616Z,14584
2017-09-11T11:01:26.474Z,11988
2017-09-11T11:02:48.934Z,13188
2017-09-11T11:04:11.694Z,14336
2017-09-11T11:05:33.513Z,14292
2017-09-11T11:06:56.000Z,11848
2017-09-11T11:08:17.815Z,7472
2017-09-11T11:09:40.621Z,6352
2017-09-11T11:11:02.454Z,5392
2017-09-11T11:12:24.601Z,6936
2017-09-11T11:13:46.764Z,11696
2017-09-11T11:15:09.213Z,14560
2017-09-11T11:16:30.408Z,17984
2017-09-11T11:17:52.242Z,14912
2017-09-11T11:19:13.504Z,15568
2017-09-11T11:20:35.256Z,15908
2017-09-11T11:21:57.433Z,14340
2017-09-11T11:23:19.588Z,14412
2017-09-11T11:24:41.721Z,15844
2017-09-11T11:26:04.300Z,15128
2017-09-11T11:27:25.832Z,13564
2017-09-11T11:28:47.988Z,12172
2017-09-11T11:30:10.182Z,11528
2017-09-11T11:31:32.908Z,11636
2017-09-11T11:32:55.048Z,12416
2017-09-11T11:34:17.155Z,13588
2017-09-11T11:35:39.287Z,9936
2017-09-11T11:37:01.896Z,8712
2017-09-11T11:38:24.043Z,7916
2017-09-11T11:39:46.203Z,8776
2017-09-11T11:41:08.353Z,9056
2017-09-11T11:42:31.173Z,8576
2017-09-11T11:43:53.393Z,8448
2017-09-11T11:45:15.555Z,9128
2017-09-11T11:46:37.704Z,11032
2017-09-11T11:48:00.113Z,14384
2017-09-11T11:49:22.589Z,16896
2017-09-11T11:50:44.750Z,14372
2017-09-11T11:52:07.032Z,11992
2017-09-11T11:53:29.127Z,10380
2017-09-11T11:54:51.305Z,10920
2017-09-11T11:56:12.836Z,11376
2017-09-11T11:57:34.383Z,12548
2017-09-11T11:58:56.559Z,14340
2017-09-11T12:00:18.392Z,14936
2017-09-11T12:01:40.541Z,14752
2017-09-11T12:03:03.149Z,11944
2017-09-11T12:04:25.243Z,11644
2017-09-11T12:05:47.785Z,11712
2017-09-11T12:07:09.935Z,11160
2017-09-11T12:08:31.131Z,11916
2017-09-11T12:09:53.241Z,12888
2017-09-11T12:11:15.062Z,14304
2017-09-11T12:12:37.532Z,14212
2017-09-11T12:13:59.353Z,14024
2017-09-11T12:15:21.867Z,13256
2017-09-11T12:16:44.033Z,12336
2017-09-11T12:18:06.187Z,12096
2017-09-11T12:19:28.352Z,11732
2017-09-11T12:20:51.169Z,11656
2017-09-11T12:22:13.035Z,10316
2017-09-11T12:23:34.651Z,8504
2017-09-11T12:24:56.477Z,7156
2017-09-11T12:26:19.192Z,6376
2017-09-11T12:27:41.433Z,5900
2017-09-11T12:29:03.894Z,5604
2017-09-11T12:30:26.133Z,5476
2017-09-11T12:31:48.901Z,5392
2017-09-11T12:33:11.432Z,5296
2017-09-11T12:34:33.256Z,5428
2017-09-11T12:35:55.505Z,5316
2017-09-11T12:37:18.226Z,5184
2017-09-11T12:38:40.395Z,5108
2017-09-11T12:40:02.556Z,4592
2017-09-11T12:41:24.703Z,4532
2017-09-11T12:42:47.172Z,5432
2017-09-11T12:44:09.306Z,7676
2017-09-11T12:45:31.132Z,8932
2017-09-11T12:46:53.313Z,8928
2017-09-11T12:48:15.725Z,10392
2017-09-11T12:49:37.880Z,10080
2017-09-11T12:51:00.053Z,8200
2017-09-11T12:52:21.906Z,7656
2017-09-11T12:53:44.793Z,6848
2017-09-11T12:55:06.616Z,6028
2017-09-11T12:56:28.764Z,5780
2017-09-11T12:57:50.924Z,7764
2017-09-11T12:59:13.338Z,10340
2017-09-11T13:00:35.504Z,11584
2017-09-11T13:01:57.666Z,11272
2017-09-11T13:03:19.494Z,10164
2017-09-11T13:04:41.716Z,9492
2017-09-11T13:06:03.217Z,9700
2017-09-11T13:07:25.430Z,10308
2017-09-11T13:08:47.600Z,10600
2017-09-11T13:10:10.082Z,9828
2017-09-11T13:11:31.953Z,9256
2017-09-11T13:12:54.453Z,10636
2017-09-11T13:14:16.873Z,12684
2017-09-11T13:15:39.651Z,14468
2017-09-11T13:17:01.545Z,14020
2017-09-11T13:18:23.713Z,11184
2017-09-11T13:19:45.563Z,11340
2017-09-11T13:21:07.381Z,12100
2017-09-11T13:22:29.960Z,11236
2017-09-11T13:23:52.441Z,10456
2017-09-11T13:25:14.384Z,10236
2017-09-11T13:26:36.463Z,10184
2017-09-11T13:27:58.954Z,10972
2017-09-11T13:29:21.094Z,12212
2017-09-11T13:30:43.240Z,11960
2017-09-11T13:32:05.634Z,11632
2017-09-11T13:33:28.139Z,12536
2017-09-11T13:34:50.377Z,10876
2017-09-11T13:36:12.558Z,9532
2017-09-11T13:37:35.284Z,9560
2017-09-11T13:38:57.509Z,10268
2017-09-11T13:40:19.995Z,10280
2017-09-11T13:41:42.253Z,9792
2017-09-11T13:43:04.512Z,8528
2017-09-11T13:44:26.660Z,7868
2017-09-11T13:45:48.492Z,7736
2017-09-11T13:47:10.962Z,8272
2017-09-11T13:48:32.843Z,9600
2017-09-11T13:49:55.464Z,11308
2017-09-11T13:51:17.294Z,12996
2017-09-11T13:52:39.885Z,14192
2017-09-11T13:54:02.375Z,14412
2017-09-11T13:55:24.849Z,13304
2017-09-11T13:56:47.384Z,11596
2017-09-11T13:58:08.948Z,10316
2017-09-11T13:59:31.014Z,9244
2017-09-11T14:00:53.179Z,8736
2017-09-11T14:02:15.694Z,7676
2017-09-11T14:03:38.170Z,6904
2017-09-11T14:05:00.923Z,6724
2017-09-11T14:06:23.108Z,5700
2017-09-11T14:07:45.262Z,5204
2017-09-11T14:09:07.750Z,5016
2017-09-11T14:10:30.173Z,4940
2017-09-11T14:11:52.390Z,4872
2017-09-11T14:13:13.617Z,4836
2017-09-11T14:14:35.469Z,4820
2017-09-11T14:15:57.944Z,4796
2017-09-11T14:17:20.414Z,4784
2017-09-11T14:18:42.904Z,4564
2017-09-11T14:20:05.036Z,4608
2017-09-11T14:21:27.504Z,4380
2017-09-11T14:22:49.671Z,4084
2017-09-11T14:24:11.833Z,5220
2017-09-11T14:25:34.366Z,6920
2017-09-11T14:26:56.879Z,9008
2017-09-11T14:28:19.446Z,10596
2017-09-11T14:29:41.922Z,10824
2017-09-11T14:31:03.773Z,11140
2017-09-11T14:32:25.909Z,10076
2017-09-11T14:33:48.144Z,7108
2017-09-11T14:35:10.632Z,5672
2017-09-11T14:36:33.117Z,5064
2017-09-11T14:37:56.517Z,4836
2017-09-11T14:39:18.770Z,5056
2017-09-11T14:40:40.603Z,5316
2017-09-11T14:42:02.743Z,4900
2017-09-11T14:43:25.276Z,4732
2017-09-11T14:44:47.792Z,4724
2017-09-11T14:46:10.275Z,4868
2017-09-11T14:47:32.457Z,5048
2017-09-11T14:48:54.207Z,5336
2017-09-11T14:50:16.453Z,4620
2017-09-11T14:51:38.816Z,4432
2017-09-11T14:53:01.268Z,6292
2017-09-11T14:54:24.061Z,7744
2017-09-11T14:55:46.293Z,6092
2017-09-11T14:57:08.766Z,4704
2017-09-11T14:58:31.260Z,4384
2017-09-11T14:59:54.082Z,4988
2017-09-11T15:01:16.225Z,5336
2017-09-11T15:02:38.372Z,5220
2017-09-11T15:04:00.523Z,5448
2017-09-11T15:05:23.092Z,5000
2017-09-11T15:06:44.938Z,4888
2017-09-11T15:08:06.768Z,4832
2017-09-11T15:09:28.983Z,5264
2017-09-11T15:10:51.033Z,4772
2017-09-11T15:12:13.281Z,4824
2017-09-11T15:13:35.764Z,4788
2017-09-11T15:14:57.927Z,4440
2017-09-11T15:16:20.347Z,4208
2017-09-11T15:17:42.713Z,4192
2017-09-11T15:19:05.218Z,3940
2017-09-11T15:20:27.374Z,3904
2017-09-11T15:21:50.288Z,4172
2017-09-11T15:23:12.130Z,4444
2017-09-11T15:24:34.013Z,4696
2017-09-11T15:25:55.842Z,4468
2017-09-11T15:27:18.333Z,3936
2017-09-11T15:28:40.191Z,3792
2017-09-11T15:30:02.692Z,4384
2017-09-11T15:31:24.853Z,4160
2017-09-11T15:32:47.028Z,4324
2017-09-11T15:34:09.512Z,5104
2017-09-11T15:35:31.423Z,5916
2017-09-11T15:36:53.656Z,4652
2017-09-11T15:38:15.752Z,4088
2017-09-11T15:39:37.586Z,4044
2017-09-11T15:40:59.748Z,4084
2017-09-11T15:42:22.242Z,4076
2017-09-11T15:43:44.982Z,4116
2017-09-11T15:45:07.453Z,4628
2017-09-11T15:46:29.619Z,4568
2017-09-11T15:47:52.169Z,4156
2017-09-11T15:49:14.579Z,4016
2017-09-11T15:50:36.427Z,4128
2017-09-11T15:51:58.252Z,4012
2017-09-11T15:53:20.086Z,3620
2017-09-11T15:54:41.619Z,3408
2017-09-11T15:56:04.192Z,3408
2017-09-11T15:57:26.368Z,3872
2017-09-11T15:58:48.518Z,5108
2017-09-11T16:00:11.385Z,5268
2017-09-11T16:01:33.215Z,5420
2017-09-11T16:02:55.354Z,5912
2017-09-11T16:04:17.501Z,6440
2017-09-11T16:05:40.352Z,5984
2017-09-11T16:07:02.843Z,6068
2017-09-11T16:08:25.344Z,6092
2017-09-11T16:09:47.943Z,6604
2017-09-11T16:11:10.449Z,6528
2017-09-11T16:12:32.636Z,5988
2017-09-11T16:13:54.470Z,5624
2017-09-11T16:15:16.623Z,5500
2017-09-11T16:16:38.844Z,5268
2017-09-11T16:18:00.483Z,5132
2017-09-11T16:19:22.773Z,4652
2017-09-11T16:20:45.253Z,4056
2017-09-11T16:22:07.974Z,3804
2017-09-11T16:23:30.209Z,3668
2017-09-11T16:24:52.698Z,3540
2017-09-11T16:26:15.095Z,3416
2017-09-11T16:27:38.063Z,3324
2017-09-11T16:29:00.543Z,3256
2017-09-11T16:30:22.715Z,3184
2017-09-11T16:31:44.654Z,3120
2017-09-11T16:33:07.116Z,3064
2017-09-11T16:34:28.952Z,3000
2017-09-11T16:35:50.224Z,2804
2017-09-11T16:37:12.693Z,2704
2017-09-11T16:38:34.479Z,2604
2017-09-11T16:39:57.026Z,2496
2017-09-11T16:41:18.862Z,2392
2017-09-11T16:42:41.056Z,2304
2017-09-11T16:44:03.263Z,2224
2017-09-11T16:45:25.114Z,2148
2017-09-11T16:46:46.965Z,2076
2017-09-11T16:48:09.125Z,2020
2017-09-11T16:49:31.587Z,1952
2017-09-11T16:50:54.095Z,1904
2017-09-11T16:52:16.593Z,1848
2017-09-11T16:53:38.843Z,1780
2017-09-11T16:55:01.267Z,1728
2017-09-11T16:56:23.775Z,1840
2017-09-11T16:57:46.045Z,1828
2017-09-11T16:59:07.885Z,2000
2017-09-11T17:00:29.703Z,2068
2017-09-11T17:01:51.938Z,2184
2017-09-11T17:03:14.082Z,2224
2017-09-11T17:04:36.252Z,1908
2017-09-11T17:05:59.035Z,1596
2017-09-11T17:07:21.256Z,1516
2017-09-11T17:08:43.894Z,1436
2017-09-11T17:10:06.423Z,1380
2017-09-11T17:11:29.224Z,1488
2017-09-11T17:12:50.866Z,1416
2017-09-11T17:14:12.986Z,1228
2017-09-11T17:15:35.505Z,1144
2017-09-11T17:16:58.111Z,1216
2017-09-11T17:18:20.606Z,1216
2017-09-11T17:19:43.244Z,1080
2017-09-11T17:21:05.417Z,952
2017-09-11T17:22:27.837Z,852
2017-09-11T17:23:50.326Z,808
2017-09-11T17:25:12.523Z,788
2017-09-11T17:26:34.707Z,768
2017-09-11T17:27:56.923Z,764
2017-09-11T17:29:19.429Z,720
2017-09-11T17:30:41.927Z,684
2017-09-11T17:32:04.123Z,632
2017-09-11T17:33:26.319Z,572
2017-09-11T17:34:48.243Z,524
2017-09-11T17:36:10.425Z,468
2017-09-11T17:37:32.593Z,412
2017-09-11T17:38:54.719Z,384
2017-09-11T17:40:16.965Z,332
2017-09-11T17:41:39.453Z,276
2017-09-11T17:43:01.644Z,236
2017-09-11T17:44:24.385Z,196
2017-09-11T17:45:46.247Z,176
2017-09-11T17:47:08.724Z,172
2017-09-11T17:48:31.246Z,164
2017-09-11T17:49:54.024Z,136
2017-09-11T17:51:15.925Z,120
2017-09-11T17:52:38.402Z,96
2017-09-11T17:54:00.894Z,80
2017-09-11T17:55:23.350Z,68
2017-09-11T17:56:45.910Z,60
2017-09-11T17:58:08.095Z,40
2017-09-11T17:59:30.062Z,32
2017-09-11T18:00:52.574Z,20
2017-09-11T18:02:15.064Z,16
2017-09-11T18:03:37.352Z,12
2017-09-11T18:04:59.196Z,8
2017-09-11T18:06:21.753Z,4
2017-09-11T18:07:43.928Z,8
2017-09-11T18:09:06.501Z,8
2017-09-11T18:10:29.155Z,12
2017-09-11T18:11:51.917Z,8
2017-09-11T18:13:14.097Z,8
2017-09-11T18:14:36.257Z,4
2017-09-11T18:15:58.173Z,4
2017-09-11T18:17:20.676Z,4
2017-09-11T18:18:42.843Z,12
2017-09-11T18:20:05.038Z,0
2017-09-11T18:21:27.555Z,0
2017-09-11T18:22:50.497Z,0
2017-09-11T18:24:13.085Z,0
2017-09-11T18:25:35.586Z,0
2017-09-11T18:26:57.433Z,0
2017-09-11T18:28:20.214Z,0
2017-09-11T18:29:42.414Z,0
2017-09-11T18:31:04.611Z,0
2017-09-11T18:32:27.106Z,0
2017-09-11T18:33:49.954Z,0
2017-09-11T18:35:12.467Z,0
2017-09-11T18:36:34.955Z,0
2017-09-11T18:37:57.163Z,0